SCF1802 ZBAD-ZUUU
Flight info
| Callsign | SCF1802 |
|---|---|
| Flight time | N/A |
| Altitude | 32100 |
| Route | PEGSO6K PEGSO B215 GODON W43 SAVPA W276 ANRUG W279 ONEBA G212 SUBUL W230 AKDIK AKDIK7U |
| Aircraft | A320/M-SDE3FGHIRWY/LB1 |
Departure
| Time | 2026-05-06 12:34 |
|---|---|
| Airport | Beijing Daxing International Airport (ZBAD) |
Arrival
| Time | N/A |
|---|---|
| Airport | Chengdu Shuangliu International Airport (ZUUU) |
| Time | Latitude | Longitude | Altitude | Speed | Heading |
|---|---|---|---|---|---|
| 2026-05-06 12:24 | 39.52056 | 116.43011 | 85 ft | 0 kts | 13° |
| 2026-05-06 12:26 | 39.52055 | 116.43011 | 85 ft | 0 kts | 13° |
| 2026-05-06 12:26 | 39.52056 | 116.43011 | 85 ft | 0 kts | 13° |
| 2026-05-06 12:26 | 39.52051 | 116.43009 | 85 ft | 2 kts | 13° |
| 2026-05-06 12:27 | 39.52035 | 116.43004 | 88 ft | 2 kts | 13° |
| 2026-05-06 12:27 | 39.52018 | 116.42999 | 87 ft | 2 kts | 13° |
| 2026-05-06 12:27 | 39.52002 | 116.42994 | 87 ft | 2 kts | 13° |
| 2026-05-06 12:27 | 39.51985 | 116.42989 | 88 ft | 2 kts | 25° |
| 2026-05-06 12:28 | 39.51973 | 116.42974 | 88 ft | 2 kts | 96° |
| 2026-05-06 12:28 | 39.51976 | 116.42957 | 89 ft | 0 kts | 104° |
| 2026-05-06 12:31 | 39.51971 | 116.42981 | 87 ft | 14 kts | 104° |
| 2026-05-06 12:31 | 39.51928 | 116.43180 | 89 ft | 17 kts | 117° |
| 2026-05-06 12:32 | 39.51864 | 116.43205 | 87 ft | 9 kts | 186° |
| 2026-05-06 12:32 | 39.51740 | 116.43170 | 95 ft | 6 kts | 192° |
| 2026-05-06 12:32 | 39.51676 | 116.43165 | 95 ft | 9 kts | 156° |
| 2026-05-06 12:33 | 39.51655 | 116.43223 | 101 ft | 6 kts | 103° |
| 2026-05-06 12:33 | 39.51650 | 116.43248 | 99 ft | 12 kts | 103° |
| 2026-05-06 12:33 | 39.51580 | 116.43642 | 99 ft | 80 kts | 103° |
| 2026-05-06 12:33 | 39.51407 | 116.44608 | 96 ft | 137 kts | 103° |
| 2026-05-06 12:34 | 39.51169 | 116.45990 | 260 ft | 167 kts | 100° |
| 2026-05-06 12:34 | 39.50905 | 116.47481 | 859 ft | 173 kts | 102° |
| 2026-05-06 12:34 | 39.50623 | 116.49031 | 1410 ft | 186 kts | 103° |
| 2026-05-06 12:34 | 39.50304 | 116.50762 | 1735 ft | 209 kts | 103° |
| 2026-05-06 12:35 | 39.49950 | 116.52724 | 2075 ft | 237 kts | 102° |
| 2026-05-06 12:35 | 39.49560 | 116.54904 | 2597 ft | 258 kts | 103° |
| 2026-05-06 12:35 | 39.49146 | 116.57193 | 3359 ft | 268 kts | 102° |
| 2026-05-06 12:35 | 39.48710 | 116.59584 | 4310 ft | 272 kts | 101° |
| 2026-05-06 12:36 | 39.48264 | 116.62009 | 4902 ft | 284 kts | 101° |
| 2026-05-06 12:36 | 39.47826 | 116.64462 | 4930 ft | 282 kts | 100° |
| 2026-05-06 12:36 | 39.47431 | 116.66951 | 4930 ft | 282 kts | 98° |
| 2026-05-06 12:36 | 39.47069 | 116.69441 | 4928 ft | 281 kts | 98° |
| 2026-05-06 12:37 | 39.46717 | 116.71933 | 4929 ft | 281 kts | 97° |
| 2026-05-06 12:37 | 39.46313 | 116.74410 | 4926 ft | 283 kts | 106° |
| 2026-05-06 12:37 | 39.45392 | 116.76699 | 4925 ft | 286 kts | 127° |